Accueil
METAR-TAF:

METAR-TAF

Aéroports :

Aéroport international David IV de Koutaïssi

Koutaïssi, Géorgie

latitude: 42-10-35N, longitude: 042-28-57E, altitude: 68 m

Observation

Le bulletin a été fait il y a 25 minutes, à 07:00 UTC
Vent 19 kt de est
Température 24°C
Humidité 41%
Pression 1019 hPa
Visibilité 10 km ou plus
pas de nuages en-dessous de 1500 mètres et pas de cumulonimbus.

METAR: UGKO 170700Z 09019KT CAVOK 24/10 Q1019 NOSIG

Heure: 11:25 (07:25 UTC)

Prévision

Le bulletin a été fait il y a 2 heures et 25 minutes, à 05:00 UTC
Prévision valable du 17 à 06 UTC au 18 à 06 UTC
Vent 19 kt de est avec des rafales jusqu'à 29 kt
Visibilité 10 km ou plus
pas de nuages en-dessous de 1500 mètres et pas de cumulonimbus.
Evoluant progressivement
du 17 à 12 UTC au 17 à 15 UTC
Vent 9 kt de est

TAF: UGKO 170500Z 1706/1806 08019G29KT CAVOK TX28/1712Z TN15/1803Z BECMG 1712/1715 08009KT

Observations et prévisions météorologiques de plus de 4000 aéroports (messages METAR et TAF).

Les stations disponibles sont représentées par des disques jaunes et rouges sur la carte.

Passer la souris dessus pour voir le nom de la station.

Cliquer dessus pour voir les observations et prévisions météorologiques.

Pour changer de carte: cliquez sur les boutons verts avec une croix noire pour zoomer, sur le bouton vert avec un tiret pour effectuer un zoom arrière, ou sur les flèches vertes pour les cartes adjacentes.


METAR-TAF: